Time;durP1;ratioP1;P1;durP2;ratioP2;P2;SDS_P1;SDS_P2;PMS_P1;PMS_P2;Temp;Humidity;BMP_temperature;BMP_pressure;BME280_temperature;BME280_humidity;BME280_pressure;Samples;Min_cycle;Max_cycle;Signal;HPM_P1;HPM_P2
2023/06/17 00:03:04;;;;;;;7.20;4.78;;;;;;;22.57;36.23;99820.25;10382372;28;20241;-68
2023/06/17 00:08:06;;;;;;;8.45;5.38;;;;;;;18.91;39.93;99838.00;10381424;28;20264;-68
2023/06/17 00:13:08;;;;;;;5.30;4.68;;;;;;;20.86;36.82;99834.09;10390192;28;20544;-68
2023/06/17 00:18:10;;;;;;;7.57;5.00;;;;;;;21.51;36.76;99842.53;10391689;28;20223;-67
2023/06/17 00:23:12;;;;;;;6.22;5.10;;;;;;;21.90;36.91;99817.03;10388884;28;20217;-67
2023/06/17 00:28:13;;;;;;;6.32;4.90;;;;;;;22.06;36.49;99842.50;10388726;28;20247;-67
2023/06/17 00:33:15;;;;;;;6.97;5.13;;;;;;;20.77;37.54;99865.53;10386876;28;20658;-66
2023/06/17 00:38:17;;;;;;;5.85;4.97;;;;;;;20.18;38.74;99857.84;10385273;28;20232;-66
2023/06/17 00:43:19;;;;;;;6.47;4.93;;;;;;;20.50;38.50;99843.66;10391634;28;20218;-67
2023/06/17 00:48:20;;;;;;;6.07;4.72;;;;;;;20.01;38.72;99836.06;10387342;28;20228;-66
2023/06/17 00:53:22;;;;;;;6.18;4.82;;;;;;;21.02;37.02;99845.19;10382682;28;20244;-66
2023/06/17 00:58:26;;;;;;;6.60;4.47;;;;;;;19.97;37.57;99855.81;10389245;28;20236;-67
2023/06/17 01:03:29;;;;;;;7.32;4.63;;;;;;;20.71;37.61;99811.31;10385381;28;20249;-67
2023/06/17 01:08:40;;;;;;;5.32;4.40;;;;;;;22.70;35.09;99806.97;10387901;28;20220;-67
2023/06/17 01:13:43;;;;;;;10.23;4.70;;;;;;;22.99;34.46;99797.53;10386499;28;20212;-67
2023/06/17 01:18:48;;;;;;;5.65;4.57;;;;;;;22.43;35.41;99814.41;10385745;28;20827;-66
2023/06/17 01:23:53;;;;;;;6.55;4.20;;;;;;;21.92;36.64;99836.66;10391311;28;20688;-67
2023/06/17 01:28:59;;;;;;;7.22;5.07;;;;;;;20.94;36.73;99860.06;10385104;28;20927;-68
2023/06/17 01:34:02;;;;;;;7.47;4.35;;;;;;;22.64;35.63;99799.00;10386894;28;20228;-67
2023/06/17 01:39:06;;;;;;;5.05;4.10;;;;;;;21.40;36.14;99860.63;10384156;28;20232;-67
2023/06/17 01:44:10;;;;;;;6.65;4.85;;;;;;;21.92;35.47;99818.38;10386361;28;20225;-67
2023/06/17 01:49:12;;;;;;;6.63;4.43;;;;;;;22.01;36.06;99807.03;10387064;28;20866;-67
2023/06/17 01:54:14;;;;;;;5.25;4.47;;;;;;;21.93;35.96;99822.78;10386760;28;20288;-64
2023/06/17 01:59:15;;;;;;;8.20;4.63;;;;;;;21.09;36.67;99801.47;10390349;28;20321;-67
2023/06/17 02:04:17;;;;;;;5.80;4.18;;;;;;;22.43;35.06;99798.06;10385696;28;20236;-67
2023/06/17 02:09:19;;;;;;;5.47;4.00;;;;;;;21.79;36.23;99830.53;10384474;28;20231;-67
2023/06/17 02:14:21;;;;;;;5.07;4.47;;;;;;;21.29;36.41;99853.41;10384706;28;20201;-67
2023/06/17 02:19:22;;;;;;;5.45;4.40;;;;;;;21.19;37.27;99842.41;10386762;28;20228;-67
2023/06/17 02:24:24;;;;;;;6.30;4.32;;;;;;;21.25;37.61;99830.50;10383335;28;20229;-67
2023/06/17 02:29:26;;;;;;;7.22;4.82;;;;;;;21.50;37.14;99815.56;10386800;28;20790;-67
2023/06/17 02:34:27;;;;;;;6.20;4.63;;;;;;;20.81;38.04;99819.63;10385854;28;20200;-67
2023/06/17 02:39:29;;;;;;;5.20;4.15;;;;;;;21.30;37.48;99797.91;10385779;28;20311;-67
2023/06/17 02:44:31;;;;;;;6.55;4.60;;;;;;;19.71;39.12;99795.66;10386439;28;20267;-66
2023/06/17 02:49:33;;;;;;;5.90;4.60;;;;;;;18.07;40.55;99791.16;10381674;28;20247;-66
2023/06/17 02:54:35;;;;;;;5.37;4.43;;;;;;;19.88;38.90;99754.94;10383216;28;20258;-66
2023/06/17 02:59:37;;;;;;;7.27;4.53;;;;;;;18.29;40.44;99798.72;10386976;28;20298;-67
2023/06/17 03:04:39;;;;;;;7.63;4.97;;;;;;;20.38;37.45;99781.25;10383563;28;20574;-66
2023/06/17 03:09:41;;;;;;;6.70;4.67;;;;;;;21.02;36.25;99794.34;10384504;28;20224;-66
2023/06/17 03:14:43;;;;;;;6.20;5.30;;;;;;;19.53;38.17;99802.09;10381787;28;20263;-66
2023/06/17 03:19:46;;;;;;;6.47;4.40;;;;;;;20.85;36.81;99802.56;10383190;28;20256;-66
2023/06/17 03:24:47;;;;;;;6.25;4.40;;;;;;;20.95;36.74;99804.59;10385662;28;20612;-66
2023/06/17 03:29:49;;;;;;;6.90;4.97;;;;;;;20.91;36.89;99798.00;10386907;28;20915;-67
2023/06/17 03:34:52;;;;;;;5.88;4.70;;;;;;;20.69;36.95;99812.38;10386769;28;20220;-66
2023/06/17 03:39:54;;;;;;;5.53;4.72;;;;;;;20.36;37.16;99821.41;10386054;28;20718;-66
2023/06/17 03:44:56;;;;;;;6.90;4.70;;;;;;;20.47;37.29;99816.97;10385944;28;20236;-67
2023/06/17 03:49:57;;;;;;;6.38;4.50;;;;;;;20.27;38.14;99829.19;10392375;28;20217;-67
2023/06/17 03:54:59;;;;;;;9.07;5.00;;;;;;;18.46;41.05;99817.81;10392355;28;20358;-67
2023/06/17 04:00:01;;;;;;;6.90;5.53;;;;;;;19.74;39.52;99797.88;10395288;28;20216;-68
2023/06/17 04:05:04;;;;;;;6.30;4.87;;;;;;;18.14;41.25;99822.72;10388166;28;20325;-67
2023/06/17 04:10:11;;;;;;;6.60;4.87;;;;;;;18.43;41.12;99810.97;10391974;28;20205;-68
2023/06/17 04:15:12;;;;;;;7.30;5.27;;;;;;;17.61;41.74;99811.59;10383554;28;20317;-67
2023/06/17 04:20:14;;;;;;;6.40;5.30;;;;;;;17.23;42.34;99784.91;10389337;28;20211;-67
2023/06/17 04:25:20;;;;;;;6.57;5.50;;;;;;;18.28;41.27;99792.47;10393068;28;20598;-67
2023/06/17 04:30:25;;;;;;;9.47;5.20;;;;;;;17.91;41.68;99806.19;10390580;28;20205;-67
2023/06/17 04:35:27;;;;;;;6.47;5.20;;;;;;;19.42;39.98;99763.09;10388111;28;20225;-68
2023/06/17 04:40:31;;;;;;;5.33;4.70;;;;;;;18.35;41.12;99835.69;10387575;28;20212;-68
2023/06/17 04:45:35;;;;;;;6.37;5.23;;;;;;;20.13;39.25;99774.34;10387948;28;20240;-67
2023/06/17 04:50:36;;;;;;;9.07;5.07;;;;;;;20.08;39.45;99797.88;10386494;28;20215;-68
2023/06/17 04:55:38;;;;;;;9.37;5.27;;;;;;;19.70;40.22;99802.97;10383894;28;20253;-67
2023/06/17 05:00:40;;;;;;;5.93;5.00;;;;;;;19.33;40.43;99824.22;10380384;28;20214;-68
2023/06/17 05:05:42;;;;;;;7.27;5.27;;;;;;;21.14;38.63;99777.03;10389283;28;20285;-66
2023/06/17 05:10:43;;;;;;;5.93;5.00;;;;;;;20.74;38.67;99805.38;10385504;28;20309;-67
2023/06/17 05:15:45;;;;;;;5.90;5.00;;;;;;;19.99;39.52;99849.09;10382499;28;20250;-67
2023/06/17 05:20:47;;;;;;;8.07;5.47;;;;;;;18.57;41.82;99867.63;10382439;28;20213;-67
2023/06/17 05:25:48;;;;;;;10.80;5.80;;;;;;;19.71;39.95;99820.91;10378283;28;20484;-66
2023/06/17 05:30:50;;;;;;;9.80;5.73;;;;;;;20.25;40.09;99796.00;10387283;28;20240;-67
2023/06/17 05:35:52;;;;;;;7.03;5.78;;;;;;;20.08;39.86;99836.72;10385668;28;20237;-66
2023/06/17 05:40:53;;;;;;;12.45;6.00;;;;;;;21.32;38.32;99817.50;10388090;28;20738;-67
2023/06/17 05:45:55;;;;;;;8.35;5.93;;;;;;;20.25;39.77;99849.53;10392647;28;20243;-66
2023/06/17 05:50:57;;;;;;;7.28;5.72;;;;;;;20.72;38.16;99840.97;10379548;28;20741;-67
2023/06/17 05:55:59;;;;;;;9.35;6.07;;;;;;;19.59;40.25;99874.44;10385196;28;21688;-67
2023/06/17 06:01:00;;;;;;;8.57;6.00;;;;;;;19.72;40.05;99876.00;10382735;28;20224;-67
2023/06/17 06:06:02;;;;;;;7.15;5.88;;;;;;;20.46;39.24;99810.72;10378524;28;20485;-67
2023/06/17 06:11:04;;;;;;;6.75;5.43;;;;;;;22.59;37.31;99769.00;10382377;28;20224;-67
2023/06/17 06:16:06;;;;;;;7.33;6.37;;;;;;;20.72;39.23;99848.31;10377923;28;20229;-68
2023/06/17 06:21:08;;;;;;;8.88;5.95;;;;;;;19.76;40.49;99888.03;10387025;28;20216;-67
2023/06/17 06:26:09;;;;;;;5.88;5.28;;;;;;;21.73;38.96;99792.63;10376635;28;20995;-68
2023/06/17 06:31:11;;;;;;;7.47;6.05;;;;;;;22.45;37.73;99790.44;10384469;28;20213;-68
2023/06/17 06:36:13;;;;;;;9.10;5.70;;;;;;;22.02;38.22;99842.19;10381760;28;20220;-67
2023/06/17 06:41:15;;;;;;;9.65;5.50;;;;;;;20.37;39.65;99901.06;10389257;28;20214;-67
2023/06/17 06:46:17;;;;;;;7.72;5.50;;;;;;;22.12;38.25;99847.72;10385163;28;20268;-67
2023/06/17 06:51:19;;;;;;;6.22;5.63;;;;;;;21.98;37.24;99854.69;10380078;28;20288;-66
2023/06/17 06:56:21;;;;;;;5.65;4.65;;;;;;;23.16;36.83;99795.44;10380061;28;20231;-67
2023/06/17 07:01:23;;;;;;;8.23;5.40;;;;;;;23.10;36.76;99825.72;10382142;28;21010;-67
2023/06/17 07:06:25;;;;;;;6.95;5.55;;;;;;;23.17;36.97;99818.91;10377995;28;20248;-67
2023/06/17 07:11:27;;;;;;;10.02;6.15;;;;;;;23.47;36.85;99794.69;10383222;28;20208;-68
2023/06/17 07:16:29;;;;;;;9.02;5.53;;;;;;;23.65;36.33;99798.81;10383077;28;20328;-68
2023/06/17 07:21:31;;;;;;;10.45;5.57;;;;;;;23.04;37.57;99849.41;10392583;28;20509;-67
2023/06/17 07:26:33;;;;;;;7.15;5.22;;;;;;;23.75;36.53;99796.94;10376515;28;20735;-67
2023/06/17 07:31:34;;;;;;;6.82;5.38;;;;;;;22.50;36.75;99845.88;10395137;28;20239;-68
2023/06/17 07:36:36;;;;;;;7.10;5.03;;;;;;;23.19;35.67;99843.22;10388825;28;20225;-67
2023/06/17 07:41:38;;;;;;;9.80;6.55;;;;;;;23.69;35.90;99808.13;10389205;28;20217;-65
2023/06/17 07:46:39;;;;;;;6.43;5.72;;;;;;;23.51;35.44;99806.69;10391481;28;20292;-66
2023/06/17 07:51:41;;;;;;;6.72;5.30;;;;;;;24.35;34.78;99783.50;10388044;28;20296;-67
2023/06/17 07:56:43;;;;;;;6.80;4.85;;;;;;;24.34;35.18;99790.06;10395597;28;20307;-66
2023/06/17 08:01:45;;;;;;;8.68;4.93;;;;;;;23.19;35.33;99841.28;10395939;28;20220;-67
2023/06/17 08:06:47;;;;;;;7.53;4.80;;;;;;;24.51;33.83;99784.28;10386894;28;20274;-67
2023/06/17 08:11:49;;;;;;;9.10;5.30;;;;;;;23.90;33.80;99819.88;10388321;28;20212;-66
2023/06/17 08:16:50;;;;;;;5.65;4.82;;;;;;;23.50;34.97;99818.69;10387172;28;20230;-65
2023/06/17 08:21:52;;;;;;;9.27;4.70;;;;;;;23.87;34.42;99810.31;10382635;28;20215;-65
2023/06/17 08:26:54;;;;;;;9.20;5.20;;;;;;;24.19;33.39;99822.88;10390416;28;20240;-67
2023/06/17 08:32:00;;;;;;;7.68;5.30;;;;;;;23.91;34.49;99819.59;10381358;28;20224;-66
2023/06/17 08:37:03;;;;;;;8.60;4.53;;;;;;;25.03;33.92;99760.25;10392660;28;20233;-67
2023/06/17 08:42:07;;;;;;;8.63;4.65;;;;;;;24.50;34.05;99782.63;10394325;28;20963;-66
2023/06/17 08:47:14;;;;;;;8.98;4.93;;;;;;;26.00;32.85;99733.28;10389588;28;20298;-66
2023/06/17 08:52:17;;;;;;;5.22;4.57;;;;;;;24.99;33.11;99774.81;10376445;28;20255;-66
2023/06/17 08:57:19;;;;;;;9.32;4.72;;;;;;;23.45;34.16;99827.72;10387816;28;20229;-67
2023/06/17 09:02:21;;;;;;;6.00;4.70;;;;;;;25.60;32.79;99741.53;10389950;28;20213;-66
2023/06/17 09:07:24;;;;;;;9.15;5.00;;;;;;;26.49;31.57;99723.97;10393724;28;20232;-66
2023/06/17 09:12:36;;;;;;;6.45;4.38;;;;;;;26.02;32.36;99726.38;10390223;28;20208;-65
2023/06/17 09:17:38;;;;;;;6.72;4.72;;;;;;;25.96;32.32;99737.69;10386677;28;20252;-65
2023/06/17 09:22:45;;;;;;;5.25;4.75;;;;;;;25.33;34.12;99771.34;10390779;28;20280;-65
2023/06/17 09:27:48;;;;;;;7.22;5.07;;;;;;;26.26;31.59;99733.84;10383593;28;20236;-65
2023/06/17 09:33:17;;;;;;;6.72;5.03;;;;;;;26.10;32.96;99718.66;10377237;28;20208;-67
2023/06/17 09:38:19;;;;;;;6.40;4.20;;;;;;;26.27;32.50;99710.00;10383400;28;20613;-66
2023/06/17 09:43:26;;;;;;;7.57;4.43;;;;;;;26.36;31.92;99713.72;10381498;28;20279;-66
2023/06/17 09:48:30;;;;;;;5.80;4.60;;;;;;;26.66;32.61;99703.47;10386618;28;20251;-66
2023/06/17 09:53:33;;;;;;;6.43;3.83;;;;;;;27.11;30.41;99703.94;10377523;28;20209;-67
2023/06/17 09:58:41;;;;;;;6.10;4.53;;;;;;;27.17;30.80;99708.22;10383123;28;20373;-67
2023/06/17 10:03:45;;;;;;;6.93;4.28;;;;;;;26.70;30.54;99701.75;10381032;28;20249;-67
2023/06/17 10:08:48;;;;;;;6.43;4.05;;;;;;;27.95;29.50;99680.28;10385001;28;20687;-66
2023/06/17 10:13:59;;;;;;;5.57;4.00;;;;;;;26.93;30.41;99714.63;10378794;28;20214;-67
2023/06/17 10:19:03;;;;;;;8.15;3.97;;;;;;;28.15;30.03;99662.56;10388789;28;20248;-67
2023/06/17 10:24:06;;;;;;;6.20;4.20;;;;;;;28.21;29.34;99667.69;10375758;28;20325;-65
2023/06/17 10:29:10;;;;;;;8.57;4.10;;;;;;;27.76;29.98;99675.69;10384527;28;20229;-67
2023/06/17 10:34:21;;;;;;;5.65;3.92;;;;;;;27.27;29.53;99730.06;10378494;28;20274;-67
2023/06/17 10:39:22;;;;;;;6.90;4.10;;;;;;;28.10;29.75;99699.22;10382109;28;20818;-67
2023/06/17 10:44:33;;;;;;;5.63;3.70;;;;;;;27.20;29.72;99735.09;10394197;28;20255;-67
2023/06/17 10:49:42;;;;;;;6.63;3.50;;;;;;;28.10;28.44;99673.69;10386084;28;21147;-67
2023/06/17 10:54:52;;;;;;;4.97;4.47;;;;;;;28.12;29.03;99679.69;10378654;28;20217;-66
2023/06/17 10:59:54;;;;;;;8.25;3.92;;;;;;;28.27;28.24;99678.59;10379185;28;20255;-66
2023/06/17 11:06:22;;;;;;;6.18;3.97;;;;;;;27.55;29.49;99671.63;10448763;28;20866;-66
2023/06/17 11:11:24;;;;;;;4.47;3.45;;;;;;;27.43;29.21;99694.94;10420670;28;20254;-67
2023/06/17 11:16:25;;;;;;;5.78;3.75;;;;;;;27.49;28.38;99701.97;10422847;28;20256;-67
2023/06/17 11:21:27;;;;;;;5.10;3.25;;;;;;;27.67;27.36;99683.78;10422560;28;20294;-66
2023/06/17 11:26:29;;;;;;;5.72;3.72;;;;;;;27.09;27.65;99736.34;10421930;28;21207;-67
2023/06/17 11:31:38;;;;;;;5.10;3.60;;;;;;;27.66;26.97;99711.56;10424010;28;20205;-66
2023/06/17 11:36:41;;;;;;;5.65;3.20;;;;;;;28.51;26.76;99664.59;10420127;28;20326;-66
2023/06/17 11:41:42;;;;;;;5.32;3.65;;;;;;;28.09;27.49;99689.38;10421032;28;20213;-66
2023/06/17 11:46:48;;;;;;;4.80;3.88;;;;;;;28.34;26.81;99685.31;10430561;28;20298;-66
2023/06/17 11:51:51;;;;;;;7.82;3.90;;;;;;;26.97;27.51;99727.75;10418013;28;20527;-66
2023/06/17 11:56:54;;;;;;;4.30;3.90;;;;;;;28.46;26.53;99631.69;10426777;28;20706;-66
2023/06/17 12:01:55;;;;;;;5.55;3.65;;;;;;;28.00;27.23;99681.03;10427092;28;20617;-67
2023/06/17 12:06:57;;;;;;;5.60;3.97;;;;;;;28.43;26.99;99641.38;10422823;28;20243;-66
2023/06/17 12:11:59;;;;;;;6.55;3.45;;;;;;;28.38;26.90;99649.75;10424804;28;20266;-66
2023/06/17 12:17:01;;;;;;;4.25;3.50;;;;;;;28.27;26.93;99673.09;10401567;28;20519;-67
2023/06/17 12:22:03;;;;;;;4.20;3.80;;;;;;;27.60;26.82;99671.56;10391711;28;20220;-67
2023/06/17 12:27:08;;;;;;;4.82;4.25;;;;;;;29.02;26.12;99635.91;10392821;28;20726;-67
2023/06/17 12:32:10;;;;;;;4.10;3.60;;;;;;;29.77;26.10;99600.38;10387751;28;20620;-67
2023/06/17 12:37:13;;;;;;;5.70;3.88;;;;;;;27.90;26.57;99677.63;10392739;28;20228;-66
2023/06/17 12:42:15;;;;;;;9.55;7.50;;;;;;;29.08;26.25;99653.94;10397740;28;20707;-66
2023/06/17 12:47:20;;;;;;;5.72;4.25;;;;;;;27.16;27.59;99681.06;10397073;28;20224;-67
2023/06/17 12:52:22;;;;;;;4.70;4.07;;;;;;;29.72;26.68;99589.47;10394202;28;20263;-66
2023/06/17 12:57:25;;;;;;;6.25;4.93;;;;;;;28.25;26.79;99629.38;10398025;28;20239;-66
2023/06/17 13:02:27;;;;;;;5.28;3.97;;;;;;;27.33;27.21;99666.81;10389909;28;20253;-65
2023/06/17 13:07:28;;;;;;;5.47;4.40;;;;;;;27.45;27.52;99653.44;10391799;28;20228;-67
2023/06/17 13:12:30;;;;;;;6.85;4.07;;;;;;;28.15;26.37;99640.56;10388411;28;20589;-66
2023/06/17 13:17:32;;;;;;;5.95;3.97;;;;;;;29.73;25.82;99595.84;10392812;28;20228;-65
2023/06/17 13:22:35;;;;;;;5.72;4.35;;;;;;;29.16;25.92;99611.06;10389173;28;20239;-66
2023/06/17 13:27:37;;;;;;;5.05;4.13;;;;;;;28.47;26.82;99630.56;10388459;28;20233;-67
2023/06/17 13:32:38;;;;;;;4.35;3.85;;;;;;;29.16;26.80;99594.56;10398925;28;20215;-66
2023/06/17 13:37:40;;;;;;;5.35;4.13;;;;;;;29.47;26.46;99602.84;10386235;28;20237;-66
2023/06/17 13:42:42;;;;;;;6.88;4.65;;;;;;;27.90;26.32;99633.66;10393187;28;20237;-65
2023/06/17 13:47:45;;;;;;;5.57;4.40;;;;;;;28.18;25.71;99650.97;10391707;28;20239;-66
2023/06/17 13:52:47;;;;;;;4.88;4.18;;;;;;;29.51;25.78;99623.09;10391992;28;20211;-66
2023/06/17 13:57:48;;;;;;;6.13;4.35;;;;;;;29.68;25.28;99613.31;10387621;28;20292;-66
2023/06/17 14:02:50;;;;;;;5.47;3.90;;;;;;;29.04;25.81;99646.63;10384438;28;20267;-66
2023/06/17 14:07:52;;;;;;;5.68;4.10;;;;;;;29.24;26.01;99612.28;10389225;28;20323;-66
2023/06/17 14:12:54;;;;;;;5.50;3.90;;;;;;;29.98;25.38;99610.84;10390555;28;20213;-66
2023/06/17 14:17:56;;;;;;;7.05;4.30;;;;;;;29.50;25.86;99615.97;10384643;28;20881;-66
2023/06/17 14:22:59;;;;;;;7.22;4.55;;;;;;;28.60;26.31;99627.78;10388344;28;20228;-66
2023/06/17 14:28:01;;;;;;;5.90;4.72;;;;;;;29.20;24.78;99622.28;10387629;28;20239;-67
2023/06/17 14:33:03;;;;;;;5.35;4.10;;;;;;;28.92;25.64;99606.69;10386841;28;20316;-67
2023/06/17 14:38:05;;;;;;;7.57;4.30;;;;;;;31.16;24.62;99532.59;10385972;28;20227;-66
2023/06/17 14:43:07;;;;;;;5.32;3.92;;;;;;;30.56;24.54;99584.81;10396871;28;20857;-66
2023/06/17 14:48:09;;;;;;;6.18;4.00;;;;;;;29.25;25.56;99625.72;10397213;28;20306;-66
2023/06/17 14:53:15;;;;;;;6.22;4.18;;;;;;;28.11;25.97;99610.13;10391071;28;20350;-67
2023/06/17 14:58:16;;;;;;;6.65;4.43;;;;;;;30.91;25.23;99559.94;10391308;28;20234;-66
2023/06/17 15:03:18;;;;;;;4.95;4.30;;;;;;;31.50;24.52;99548.25;10387068;28;20243;-65
2023/06/17 15:08:20;;;;;;;6.25;3.92;;;;;;;29.98;24.72;99611.63;10384955;28;20228;-67
2023/06/17 15:13:22;;;;;;;5.00;4.13;;;;;;;30.60;24.71;99588.56;10392973;28;20647;-66
2023/06/17 15:18:24;;;;;;;5.25;4.13;;;;;;;29.24;24.69;99609.53;10387403;28;20236;-65
2023/06/17 15:23:25;;;;;;;7.97;4.03;;;;;;;29.97;24.79;99589.91;10393438;28;20298;-66
2023/06/17 15:28:27;;;;;;;5.05;3.85;;;;;;;29.17;25.14;99606.38;10391401;28;20234;-65
2023/06/17 15:33:29;;;;;;;5.18;4.25;;;;;;;29.85;24.96;99599.59;10389108;28;20212;-65
2023/06/17 15:38:30;;;;;;;5.45;3.83;;;;;;;30.71;25.18;99563.38;10390084;28;20228;-66
2023/06/17 15:43:32;;;;;;;5.55;3.85;;;;;;;30.33;24.42;99581.38;10389617;28;20237;-66
2023/06/17 15:48:34;;;;;;;6.15;3.65;;;;;;;29.60;25.37;99581.81;10385754;28;20319;-66
2023/06/17 15:53:36;;;;;;;5.25;4.28;;;;;;;30.88;24.52;99544.00;10399006;28;20293;-68
2023/06/17 15:58:38;;;;;;;4.90;3.88;;;;;;;29.61;24.55;99601.94;10379406;23;20241;-35
2023/06/17 16:03:40;;;;;;;5.38;3.95;;;;;;;31.12;24.10;99571.13;10354321;28;20324;-35
2023/06/17 16:08:42;;;;;;;5.80;3.67;;;;;;;31.66;24.65;99539.38;10336163;28;20207;-35
2023/06/17 16:13:44;;;;;;;5.30;4.15;;;;;;;30.61;24.92;99584.66;10322012;28;20705;-35
2023/06/17 16:18:46;;;;;;;7.32;3.97;;;;;;;30.78;24.41;99577.50;10331105;28;20249;-37
2023/06/17 16:23:48;;;;;;;5.10;3.72;;;;;;;31.98;24.70;99537.09;10344933;28;20317;-35
2023/06/17 16:28:49;;;;;;;4.70;3.75;;;;;;;30.81;23.92;99579.63;10321811;28;20217;-35
2023/06/17 16:33:51;;;;;;;6.05;4.13;;;;;;;30.28;24.47;99573.28;10336234;28;20249;-35
2023/06/17 16:38:53;;;;;;;5.57;4.00;;;;;;;30.55;24.26;99583.22;10333332;28;20268;-35
2023/06/17 16:43:55;;;;;;;5.50;3.95;;;;;;;31.73;24.03;99551.56;10327929;28;20234;-35
2023/06/17 16:48:57;;;;;;;5.50;4.20;;;;;;;30.79;24.92;99588.22;10327544;28;20219;-35
2023/06/17 16:54:00;;;;;;;7.82;4.15;;;;;;;31.21;24.34;99562.81;10325096;28;20317;-35
2023/06/17 16:59:05;;;;;;;4.53;3.90;;;;;;;30.03;25.12;99588.63;10326818;28;20241;-35
2023/06/17 17:04:11;;;;;;;6.53;4.10;;;;;;;30.71;24.95;99582.72;10317051;28;20238;-35
2023/06/17 17:09:13;;;;;;;6.35;4.20;;;;;;;30.65;24.23;99582.03;10325971;28;20206;-35
2023/06/17 17:14:15;;;;;;;5.28;4.00;;;;;;;30.96;24.21;99576.38;10329169;28;20708;-35
2023/06/17 17:19:17;;;;;;;4.22;3.53;;;;;;;30.02;24.42;99609.06;10327794;28;20209;-35
2023/06/17 17:24:19;;;;;;;4.75;3.63;;;;;;;30.14;24.57;99587.19;10326576;28;20241;-35
2023/06/17 17:29:21;;;;;;;5.35;4.05;;;;;;;29.89;24.30;99606.09;10332183;28;20219;-35
2023/06/17 17:34:23;;;;;;;4.15;3.47;;;;;;;29.81;25.14;99597.81;10320136;28;20221;-37
2023/06/17 17:39:25;;;;;;;4.63;3.78;;;;;;;29.20;26.13;99591.97;10325707;28;20222;-35
2023/06/17 17:44:27;;;;;;;5.32;4.40;;;;;;;30.98;25.63;99551.19;10328750;28;20238;-35
2023/06/17 17:49:30;;;;;;;6.38;4.40;;;;;;;30.46;26.08;99574.06;10323061;28;20269;-35
2023/06/17 17:54:31;;;;;;;5.78;3.63;;;;;;;30.47;25.63;99578.47;10328414;28;20262;-35
2023/06/17 17:59:38;;;;;;;4.35;3.92;;;;;;;29.91;26.48;99583.72;10324137;28;20242;-35
2023/06/17 18:04:40;;;;;;;5.18;4.13;;;;;;;29.15;26.21;99610.28;10320970;28;20323;-35
2023/06/17 18:09:42;;;;;;;5.03;4.07;;;;;;;29.57;27.13;99585.19;10320271;28;20642;-35
2023/06/17 18:14:44;;;;;;;5.88;3.95;;;;;;;28.26;26.88;99597.19;10314826;28;20231;-35
2023/06/17 18:19:46;;;;;;;6.50;4.72;;;;;;;28.71;27.33;99595.38;10326250;28;20279;-36
2023/06/17 18:24:48;;;;;;;5.57;4.30;;;;;;;28.11;27.35;99621.13;10331257;28;20544;-35
2023/06/17 18:29:50;;;;;;;6.05;4.65;;;;;;;29.29;27.01;99601.13;10322460;28;20206;-35
2023/06/17 18:34:52;;;;;;;5.43;4.10;;;;;;;29.46;26.16;99603.94;10323686;28;20303;-35
2023/06/17 18:39:54;;;;;;;8.95;3.70;;;;;;;29.68;26.44;99605.84;10322971;28;20216;-35
2023/06/17 18:44:56;;;;;;;7.25;4.68;;;;;;;29.27;26.60;99619.91;10324733;28;20567;-35
2023/06/17 18:49:58;;;;;;;6.70;4.32;;;;;;;29.58;27.04;99608.06;10320264;28;20214;-35
2023/06/17 18:55:00;;;;;;;7.03;3.97;;;;;;;30.29;26.95;99590.63;10320499;28;20321;-36
2023/06/17 19:00:02;;;;;;;6.10;3.92;;;;;;;30.93;26.17;99573.41;10320447;28;20252;-35
2023/06/17 19:05:05;;;;;;;5.65;4.05;;;;;;;30.22;26.11;99613.97;10321712;28;20242;-35
2023/06/17 19:10:08;;;;;;;4.70;4.22;;;;;;;30.25;27.07;99618.88;10317681;28;20236;-35
2023/06/17 19:15:13;;;;;;;5.13;3.85;;;;;;;30.27;26.84;99613.03;10310636;28;20292;-35
2023/06/17 19:20:14;;;;;;;4.63;3.75;;;;;;;30.35;26.24;99616.91;10312283;28;20210;-36
2023/06/17 19:25:16;;;;;;;5.13;3.78;;;;;;;29.83;26.43;99639.66;10310915;28;20237;-35
2023/06/17 19:30:18;;;;;;;6.80;4.25;;;;;;;29.91;26.90;99633.38;10321642;28;20217;-35
2023/06/17 19:35:20;;;;;;;5.70;4.60;;;;;;;29.55;27.27;99639.81;10314997;28;20292;-35
2023/06/17 19:40:22;;;;;;;5.60;4.40;;;;;;;28.79;28.08;99651.59;10311058;28;20210;-37
2023/06/17 19:45:28;;;;;;;6.57;4.43;;;;;;;28.88;27.68;99626.88;10325009;28;20230;-35
2023/06/17 19:50:32;;;;;;;7.03;4.13;;;;;;;28.57;28.30;99639.41;10319131;28;20218;-36
2023/06/17 19:55:34;;;;;;;6.30;4.05;;;;;;;27.48;29.13;99652.81;10315380;28;20226;-36
2023/06/17 20:00:37;;;;;;;7.85;4.53;;;;;;;27.02;29.93;99659.03;10317823;28;20265;-35
2023/06/17 20:05:39;;;;;;;6.15;4.20;;;;;;;27.00;30.21;99644.81;10315912;28;20742;-36
2023/06/17 20:10:42;;;;;;;7.25;4.75;;;;;;;28.07;28.82;99655.88;10308015;28;20849;-36
2023/06/17 20:15:44;;;;;;;5.20;4.25;;;;;;;25.77;29.53;99685.53;10316968;28;20668;-35
2023/06/17 20:20:46;;;;;;;7.07;5.35;;;;;;;26.14;30.85;99671.16;10319799;28;20210;-37
2023/06/17 20:25:47;;;;;;;6.25;5.00;;;;;;;25.75;31.40;99663.91;10315371;28;20757;-36
2023/06/17 20:30:49;;;;;;;7.32;4.97;;;;;;;25.73;32.45;99654.34;10317492;28;20211;-35
2023/06/17 20:35:53;;;;;;;6.88;5.57;;;;;;;24.83;34.66;99653.66;10315081;28;20319;-36
2023/06/17 20:40:56;;;;;;;7.07;5.28;;;;;;;25.45;33.66;99652.09;10322197;28;20217;-35
2023/06/17 20:45:58;;;;;;;6.70;5.03;;;;;;;24.00;34.52;99654.00;10324113;28;20230;-35
2023/06/17 20:50:59;;;;;;;6.45;5.07;;;;;;;24.88;33.63;99642.69;10316068;28;20344;-36
2023/06/17 20:56:01;;;;;;;6.97;4.65;;;;;;;24.84;34.26;99656.13;10318740;28;20229;-36
2023/06/17 21:01:03;;;;;;;7.20;4.68;;;;;;;24.34;35.59;99655.25;10317792;28;20275;-36
2023/06/17 21:06:05;;;;;;;7.50;4.93;;;;;;;25.86;34.13;99658.31;10311439;28;20333;-36
2023/06/17 21:11:07;;;;;;;8.07;4.70;;;;;;;26.05;33.62;99666.59;10310791;28;20256;-36
2023/06/17 21:16:09;;;;;;;8.00;5.20;;;;;;;25.49;33.74;99663.31;10318851;28;20226;-36
2023/06/17 21:21:10;;;;;;;7.03;4.72;;;;;;;25.74;33.82;99675.16;10319389;28;20519;-36
2023/06/17 21:26:15;;;;;;;7.55;4.70;;;;;;;25.28;34.46;99681.84;10315205;28;20257;-36
2023/06/17 21:31:17;;;;;;;8.60;4.60;;;;;;;25.18;34.71;99679.16;10315762;28;20210;-36
2023/06/17 21:36:19;;;;;;;6.70;4.97;;;;;;;24.84;34.92;99690.88;10315677;28;20265;-36
2023/06/17 21:41:21;;;;;;;9.07;4.88;;;;;;;24.55;34.99;99686.88;10318975;28;20305;-36
2023/06/17 21:46:26;;;;;;;9.73;5.18;;;;;;;24.94;35.02;99681.78;10318227;28;20338;-36
2023/06/17 21:51:28;;;;;;;5.32;4.65;;;;;;;25.03;34.13;99685.53;10320265;28;20267;-36
2023/06/17 21:56:30;;;;;;;7.50;5.00;;;;;;;23.95;35.63;99675.84;10315793;28;20254;-36
2023/06/17 22:01:32;;;;;;;6.28;4.93;;;;;;;24.98;31.71;99693.78;10316688;28;20209;-36
2023/06/17 22:06:33;;;;;;;5.53;4.55;;;;;;;25.20;33.39;99688.75;10331118;28;20260;-36
2023/06/17 22:11:35;;;;;;;6.70;4.57;;;;;;;24.54;35.39;99682.53;10372681;22;20353;-91
2023/06/17 22:16:38;;;;;;;7.10;4.97;;;;;;;24.73;33.60;99681.88;10421121;28;20398;-91
2023/06/17 22:21:40;;;;;;;8.27;4.75;;;;;;;24.81;33.42;99696.91;10417415;28;20267;-91
2023/06/17 22:26:41;;;;;;;7.22;4.70;;;;;;;25.53;32.44;99683.53;10413921;28;20313;-91
2023/06/17 22:31:43;;;;;;;5.57;4.50;;;;;;;25.52;31.54;99701.06;10416576;28;20219;-92
2023/06/17 22:36:45;;;;;;;7.88;4.72;;;;;;;23.43;34.18;99712.47;10431710;28;20573;-92
2023/06/17 22:41:47;;;;;;;5.65;4.88;;;;;;;21.94;35.33;99699.13;10420630;28;20463;-91
2023/06/17 22:46:49;;;;;;;5.97;4.57;;;;;;;22.42;33.92;99690.09;10414073;28;20602;-91
2023/06/17 22:51:51;;;;;;;5.68;4.78;;;;;;;22.96;33.47;99708.03;10411333;28;20237;-90
2023/06/17 22:56:52;;;;;;;5.30;4.80;;;;;;;23.70;32.70;99714.16;10414355;28;20203;-91
2023/06/17 23:01:54;;;;;;;6.55;4.63;;;;;;;24.08;33.13;99687.31;10416418;28;20235;-92
2023/06/17 23:06:58;;;;;;;6.57;4.68;;;;;;;22.57;35.54;99695.66;10420311;28;20253;-91
2023/06/17 23:12:00;;;;;;;5.75;4.80;;;;;;;23.76;34.30;99683.00;10407260;28;20251;-90
2023/06/17 23:17:02;;;;;;;6.97;4.78;;;;;;;23.48;34.47;99682.44;10412131;28;20712;-90
2023/06/17 23:22:04;;;;;;;5.57;4.72;;;;;;;23.66;34.28;99683.03;10413552;28;20489;-91
2023/06/17 23:27:06;;;;;;;6.00;4.95;;;;;;;23.41;34.69;99685.44;10418142;28;20228;-90